Impacts METAR Board INFO
IDs:

KSTL - St Louis/Lambert Int, MO, US

Updated at: 0623 UTC 14 Dec 2017
Potential Impact None Slight Moderate High
Time13/18Z 13/19Z 13/20Z 13/21Z 13/22Z 13/23Z 14/00Z 14/01Z 14/02Z 14/03Z 14/04Z 14/05Z 14/06Z
VIS10 10 10 10 10 10 10 10 10 10 10 10 10
CIG200 -- -- -- -- -- -- -- -- -- 36 37 42
CoverBKNFEWFEWSCTFEWFEWCLRCLRCLRSCTOVCBKNOVC
FltCatVFRVFRVFRVFRVFRVFRVFRVFRVFRVFRVFRVFRVFR
WX--------------------------
WDir260270280280310310310310320320330320310
WSpd16 19 30 23 16 10 17 12 15 17 16 18 12
WGst26 28 39 29 27 -- 23 -- 23 25 -- 27 --
Raw hourly METARs
KSTL 131751Z 26016G26KT 10SM SCT130 BKN200 11/M03 A2960 RMK AO2 PK WND 25027/1658 SLP030 T01061033 10106 21011 55010
KSTL 131851Z 27019G28KT 10SM FEW110 FEW250 13/M02 A2956 RMK AO2 PK WND 27030/1841 SLP015 T01281022
KSTL 131951Z 28030G39KT 10SM FEW070 FEW250 14/M02 A2956 RMK AO2 PK WND 27039/1951 SLP014 T01391017
KSTL 132051Z 28023G29KT 10SM SCT065 14/M01 A2957 RMK AO2 PK WND 28038/1952 SLP019 T01391011 55010
KSTL 132151Z 31016G27KT 10SM FEW065 13/01 A2960 RMK AO2 PK WND 29037/2118 SLP030 T01280006
KSTL 132251Z 31010KT 10SM FEW050 11/01 A2964 RMK AO2 PK WND 31028/2153 SLP041 T01110011
KSTL 132351Z 31017G23KT 10SM CLR 11/M01 A2967 RMK AO2 PK WND 31027/2337 SLP051 T01061011 10144 20100 52031
KSTL 140051Z 31012KT 10SM CLR 09/M01 A2970 RMK AO2 SLP065 T00891006
KSTL 140151Z 32015G23KT 10SM CLR 06/M01 A2975 RMK AO2 SLP082 T00611006
KSTL 140251Z 32017G25KT 10SM SCT045 06/M01 A2977 RMK AO2 PK WND 33027/0223 SLP087 T00561011 51034
KSTL 140351Z 33016KT 10SM OVC036 05/M02 A2981 RMK AO2 PK WND 34029/0326 SLP101 T00501022
KSTL 140451Z 32018G27KT 10SM BKN037 04/M03 A2984 RMK AO2 PK WND 33027/0447 SLP110 T00441033
KSTL 140551Z 31012KT 10SM OVC042 04/M04 A2989 RMK AO2 SLP124 T00391044 10106 20039 401441028 51038